sensor_id;sensor_type;location;lat;lon;timestamp;pressure;altitude;pressure_sealevel;temperature;humidity
64889;BME280;51386;53.082;8.816;2023-04-09T00:01:26;102680.22;;;14.69;53.86
64889;BME280;51386;53.082;8.816;2023-04-09T00:03:53;102672.25;;;14.69;53.46
64889;BME280;51386;53.082;8.816;2023-04-09T00:06:21;102677.41;;;14.70;53.55
64889;BME280;51386;53.082;8.816;2023-04-09T00:08:48;102672.25;;;14.69;53.90
64889;BME280;51386;53.082;8.816;2023-04-09T00:11:16;102678.38;;;14.69;53.67
64889;BME280;51386;53.082;8.816;2023-04-09T00:13:43;102677.56;;;14.69;53.59
64889;BME280;51386;53.082;8.816;2023-04-09T00:16:10;102680.03;;;14.70;53.62
64889;BME280;51386;53.082;8.816;2023-04-09T00:18:37;102677.41;;;14.70;53.67
64889;BME280;51386;53.082;8.816;2023-04-09T00:21:04;102672.25;;;14.69;53.72
64889;BME280;51386;53.082;8.816;2023-04-09T00:23:33;102675.72;;;14.69;53.67
64889;BME280;51386;53.082;8.816;2023-04-09T00:26:00;102677.56;;;14.69;53.85
64889;BME280;51386;53.082;8.816;2023-04-09T00:28:28;102674.06;;;14.68;53.45
64889;BME280;51386;53.082;8.816;2023-04-09T00:30:55;102677.56;;;14.69;53.52
64889;BME280;51386;53.082;8.816;2023-04-09T00:33:22;102675.03;;;14.67;53.86
64889;BME280;51386;53.082;8.816;2023-04-09T00:35:50;102676.72;;;14.68;53.90
64889;BME280;51386;53.082;8.816;2023-04-09T00:38:17;102671.41;;;14.68;53.77
64889;BME280;51386;53.082;8.816;2023-04-09T00:40:48;102671.41;;;14.68;53.78
64889;BME280;51386;53.082;8.816;2023-04-09T00:43:15;102664.44;;;14.67;54.12
64889;BME280;51386;53.082;8.816;2023-04-09T00:45:44;102668.78;;;14.68;53.76
64889;BME280;51386;53.082;8.816;2023-04-09T00:48:12;102666.13;;;14.68;53.72
64889;BME280;51386;53.082;8.816;2023-04-09T00:50:40;102669.75;;;14.67;53.59
64889;BME280;51386;53.082;8.816;2023-04-09T00:53:09;102658.31;;;14.67;53.62
64889;BME280;51386;53.082;8.816;2023-04-09T00:55:39;102668.91;;;14.67;53.82
64889;BME280;51386;53.082;8.816;2023-04-09T00:58:07;102658.47;;;14.65;53.71
64889;BME280;51386;53.082;8.816;2023-04-09T01:00:34;102668.41;;;14.63;53.75
64889;BME280;51386;53.082;8.816;2023-04-09T01:03:04;102662.41;;;14.61;53.72
64889;BME280;51386;53.082;8.816;2023-04-09T01:05:42;102655.75;;;14.57;53.77
64889;BME280;51386;53.082;8.816;2023-04-09T01:08:20;102658.72;;;14.54;53.97
64889;BME280;51386;53.082;8.816;2023-04-09T01:11:01;102654.56;;;14.52;53.63
64889;BME280;51386;53.082;8.816;2023-04-09T01:13:41;102650.38;;;14.49;53.89
64889;BME280;51386;53.082;8.816;2023-04-09T01:16:15;102656.53;;;14.50;53.78
64889;BME280;51386;53.082;8.816;2023-04-09T01:18:51;102659.31;;;14.48;53.97
64889;BME280;51386;53.082;8.816;2023-04-09T01:21:29;102657.50;;;14.49;53.92
64889;BME280;51386;53.082;8.816;2023-04-09T01:24:12;102651.38;;;14.48;54.06
64889;BME280;51386;53.082;8.816;2023-04-09T01:26:56;102655.69;;;14.49;53.89
64889;BME280;51386;53.082;8.816;2023-04-09T01:29:31;102654.69;;;14.50;53.98
64889;BME280;51386;53.082;8.816;2023-04-09T01:32:01;102652.03;;;14.50;53.88
64889;BME280;51386;53.082;8.816;2023-04-09T01:34:30;102653.72;;;14.51;54.02
64889;BME280;51386;53.082;8.816;2023-04-09T01:37:01;102650.91;;;14.53;53.81
64889;BME280;51386;53.082;8.816;2023-04-09T01:39:29;102649.09;;;14.53;53.80
64889;BME280;51386;53.082;8.816;2023-04-09T01:41:57;102651.75;;;14.53;53.54
64889;BME280;51386;53.082;8.816;2023-04-09T01:44:27;102650.91;;;14.53;53.86
64889;BME280;51386;53.082;8.816;2023-04-09T01:46:57;102647.44;;;14.52;53.65
64889;BME280;51386;53.082;8.816;2023-04-09T01:49:24;102645.59;;;14.53;53.68
64889;BME280;51386;53.082;8.816;2023-04-09T01:51:52;102648.25;;;14.53;53.44
64889;BME280;51386;53.082;8.816;2023-04-09T01:54:19;102643.13;;;14.51;53.75
64889;BME280;51386;53.082;8.816;2023-04-09T01:56:47;102646.75;;;14.50;53.88
64889;BME280;51386;53.082;8.816;2023-04-09T01:59:14;102649.38;;;14.50;53.81
64889;BME280;51386;53.082;8.816;2023-04-09T02:01:46;102644.25;;;14.49;53.69
64889;BME280;51386;53.082;8.816;2023-04-09T02:04:21;102649.56;;;14.49;53.34
64889;BME280;51386;53.082;8.816;2023-04-09T02:06:59;102648.72;;;14.48;53.48
64889;BME280;51386;53.082;8.816;2023-04-09T02:09:30;102649.72;;;14.47;53.49
64889;BME280;51386;53.082;8.816;2023-04-09T02:12:02;102645.00;;;14.41;53.43
64889;BME280;51386;53.082;8.816;2023-04-09T02:14:31;102651.59;;;14.37;53.64
64889;BME280;51386;53.082;8.816;2023-04-09T02:17:00;102648.97;;;14.37;53.68
64889;BME280;51386;53.082;8.816;2023-04-09T02:19:38;102644.63;;;14.36;53.97
64889;BME280;51386;53.082;8.816;2023-04-09T02:22:05;102643.50;;;14.39;53.46
64889;BME280;51386;53.082;8.816;2023-04-09T02:24:32;102646.00;;;14.40;53.65
64889;BME280;51386;53.082;8.816;2023-04-09T02:26:59;102644.03;;;14.42;53.59
64889;BME280;51386;53.082;8.816;2023-04-09T02:29:26;102642.06;;;14.44;53.51
64889;BME280;51386;53.082;8.816;2023-04-09T02:31:53;102641.22;;;14.44;53.48
64889;BME280;51386;53.082;8.816;2023-04-09T02:34:22;102639.72;;;14.41;53.13
64889;BME280;51386;53.082;8.816;2023-04-09T02:36:49;102642.97;;;14.35;53.29
64889;BME280;51386;53.082;8.816;2023-04-09T02:39:16;102641.59;;;14.31;53.34
64889;BME280;51386;53.082;8.816;2023-04-09T02:41:44;102636.16;;;14.33;53.19
64889;BME280;51386;53.082;8.816;2023-04-09T02:44:11;102648.56;;;14.32;53.03
64889;BME280;51386;53.082;8.816;2023-04-09T02:46:39;102633.09;;;14.27;53.07
64889;BME280;51386;53.082;8.816;2023-04-09T02:49:07;102637.72;;;14.25;53.17
64889;BME280;51386;53.082;8.816;2023-04-09T02:51:35;102632.56;;;14.24;53.09
64889;BME280;51386;53.082;8.816;2023-04-09T02:54:03;102625.31;;;14.26;53.35
64889;BME280;51386;53.082;8.816;2023-04-09T02:56:30;102623.19;;;14.30;52.82
64889;BME280;51386;53.082;8.816;2023-04-09T02:58:57;102625.00;;;14.29;53.02
64889;BME280;51386;53.082;8.816;2023-04-09T03:01:24;102620.69;;;14.28;52.74
64889;BME280;51386;53.082;8.816;2023-04-09T03:03:51;102629.50;;;14.29;52.64
64889;BME280;51386;53.082;8.816;2023-04-09T03:06:18;102614.13;;;14.32;52.94
64889;BME280;51386;53.082;8.816;2023-04-09T03:08:46;102617.16;;;14.37;53.04
64889;BME280;51386;53.082;8.816;2023-04-09T03:11:13;102624.81;;;14.40;52.74
64889;BME280;51386;53.082;8.816;2023-04-09T03:13:40;102622.00;;;14.42;52.74
64889;BME280;51386;53.082;8.816;2023-04-09T03:16:07;102619.06;;;14.45;52.71
64889;BME280;51386;53.082;8.816;2023-04-09T03:18:35;102616.25;;;14.46;52.52
64889;BME280;51386;53.082;8.816;2023-04-09T03:21:04;102612.63;;;14.47;52.40
64889;BME280;51386;53.082;8.816;2023-04-09T03:23:32;102607.47;;;14.46;52.41
64889;BME280;51386;53.082;8.816;2023-04-09T03:26:03;102613.59;;;14.46;52.56
64889;BME280;51386;53.082;8.816;2023-04-09T03:28:30;102604.97;;;14.44;52.45
64889;BME280;51386;53.082;8.816;2023-04-09T03:30:57;102604.13;;;14.44;52.42
64889;BME280;51386;53.082;8.816;2023-04-09T03:33:24;102604.13;;;14.44;52.31
64889;BME280;51386;53.082;8.816;2023-04-09T03:35:51;102600.97;;;14.40;52.25
64889;BME280;51386;53.082;8.816;2023-04-09T03:38:18;102600.28;;;14.38;52.46
64889;BME280;51386;53.082;8.816;2023-04-09T03:40:46;102603.91;;;14.37;52.54
64889;BME280;51386;53.082;8.816;2023-04-09T03:43:14;102600.59;;;14.35;52.29
64889;BME280;51386;53.082;8.816;2023-04-09T03:45:41;102604.50;;;14.31;52.23
64889;BME280;51386;53.082;8.816;2023-04-09T03:48:08;102606.78;;;14.26;52.41
64889;BME280;51386;53.082;8.816;2023-04-09T03:50:39;102600.09;;;14.22;52.27
64889;BME280;51386;53.082;8.816;2023-04-09T03:53:06;102601.41;;;14.18;52.28
64889;BME280;51386;53.082;8.816;2023-04-09T03:55:33;102585.13;;;14.13;52.43
64889;BME280;51386;53.082;8.816;2023-04-09T03:58:00;102584.75;;;14.08;52.44
64889;BME280;51386;53.082;8.816;2023-04-09T04:00:29;102587.03;;;14.03;52.40
64889;BME280;51386;53.082;8.816;2023-04-09T04:02:55;102588.59;;;13.96;52.62
64889;BME280;51386;53.082;8.816;2023-04-09T04:05:23;102587.25;;;13.92;52.76
64889;BME280;51386;53.082;8.816;2023-04-09T04:07:53;102589.50;;;13.87;52.81
64889;BME280;51386;53.082;8.816;2023-04-09T04:10:20;102594.41;;;13.82;52.82
64889;BME280;51386;53.082;8.816;2023-04-09T04:12:47;102599.03;;;13.80;52.93
64889;BME280;51386;53.082;8.816;2023-04-09T04:15:14;102596.56;;;13.78;53.09
64889;BME280;51386;53.082;8.816;2023-04-09T04:17:43;102592.06;;;13.79;53.03
64889;BME280;51386;53.082;8.816;2023-04-09T04:20:10;102597.34;;;13.79;53.06
64889;BME280;51386;53.082;8.816;2023-04-09T04:22:37;102599.03;;;13.80;52.89
64889;BME280;51386;53.082;8.816;2023-04-09T04:25:05;102594.59;;;13.80;52.89
64889;BME280;51386;53.082;8.816;2023-04-09T04:27:32;102600.72;;;13.81;52.87
64889;BME280;51386;53.082;8.816;2023-04-09T04:29:59;102597.06;;;13.82;52.85
64889;BME280;51386;53.082;8.816;2023-04-09T04:32:28;102599.03;;;13.80;53.05
64889;BME280;51386;53.082;8.816;2023-04-09T04:34:56;102601.00;;;13.78;52.96
64889;BME280;51386;53.082;8.816;2023-04-09T04:37:23;102607.28;;;13.77;52.98
64889;BME280;51386;53.082;8.816;2023-04-09T04:39:50;102608.28;;;13.76;53.13
64889;BME280;51386;53.082;8.816;2023-04-09T04:42:17;102614.53;;;13.75;53.13
64889;BME280;51386;53.082;8.816;2023-04-09T04:44:44;102610.25;;;13.74;53.09
64889;BME280;51386;53.082;8.816;2023-04-09T04:47:11;102615.66;;;13.72;53.25
64889;BME280;51386;53.082;8.816;2023-04-09T04:49:38;102617.78;;;13.69;53.28
64889;BME280;51386;53.082;8.816;2023-04-09T04:52:06;102617.69;;;13.61;53.27
64889;BME280;51386;53.082;8.816;2023-04-09T04:54:33;102622.06;;;13.52;53.62
64889;BME280;51386;53.082;8.816;2023-04-09T04:57:00;102617.78;;;13.41;53.46
64889;BME280;51386;53.082;8.816;2023-04-09T04:59:27;102621.53;;;13.39;53.75
64889;BME280;51386;53.082;8.816;2023-04-09T05:01:54;102625.03;;;13.39;53.63
64889;BME280;51386;53.082;8.816;2023-04-09T05:04:22;102625.03;;;13.39;53.65
64889;BME280;51386;53.082;8.816;2023-04-09T05:06:49;102624.06;;;13.40;53.83
64889;BME280;51386;53.082;8.816;2023-04-09T05:09:17;102614.16;;;13.42;53.53
64889;BME280;51386;53.082;8.816;2023-04-09T05:11:47;102619.31;;;13.44;53.47
64889;BME280;51386;53.082;8.816;2023-04-09T05:14:13;102620.13;;;13.44;53.72
64889;BME280;51386;53.082;8.816;2023-04-09T05:16:41;102630.72;;;13.44;53.51
64889;BME280;51386;53.082;8.816;2023-04-09T05:19:08;102629.03;;;13.43;53.92
64889;BME280;51386;53.082;8.816;2023-04-09T05:21:34;102631.00;;;13.41;54.08
64889;BME280;51386;53.082;8.816;2023-04-09T05:24:02;102630.16;;;13.41;53.97
64889;BME280;51386;53.082;8.816;2023-04-09T05:26:30;102629.03;;;13.43;54.02
64889;BME280;51386;53.082;8.816;2023-04-09T05:28:57;102632.38;;;13.45;54.08
64889;BME280;51386;53.082;8.816;2023-04-09T05:31:24;102637.66;;;13.45;54.07
64889;BME280;51386;53.082;8.816;2023-04-09T05:33:51;102633.53;;;13.43;54.29
64889;BME280;51386;53.082;8.816;2023-04-09T05:36:18;102635.00;;;13.45;54.26
64889;BME280;51386;53.082;8.816;2023-04-09T05:38:46;102633.75;;;13.49;54.15
64889;BME280;51386;53.082;8.816;2023-04-09T05:41:14;102633.75;;;13.49;54.17
64889;BME280;51386;53.082;8.816;2023-04-09T05:43:43;102634.03;;;13.46;54.31
64889;BME280;51386;53.082;8.816;2023-04-09T05:46:09;102631.00;;;13.41;54.40
64889;BME280;51386;53.082;8.816;2023-04-09T05:48:36;102640.22;;;13.37;54.41
64889;BME280;51386;53.082;8.816;2023-04-09T05:51:04;102638.28;;;13.30;54.68
64889;BME280;51386;53.082;8.816;2023-04-09T05:53:31;102636.09;;;13.25;54.39
64889;BME280;51386;53.082;8.816;2023-04-09T05:55:58;102625.78;;;13.22;54.76
64889;BME280;51386;53.082;8.816;2023-04-09T05:58:25;102639.56;;;13.26;54.60
64889;BME280;51386;53.082;8.816;2023-04-09T06:00:55;102638.84;;;13.33;54.75
64889;BME280;51386;53.082;8.816;2023-04-09T06:03:22;102639.09;;;13.40;54.66
64889;BME280;51386;53.082;8.816;2023-04-09T06:05:49;102634.19;;;13.45;54.27
64889;BME280;51386;53.082;8.816;2023-04-09T06:08:16;102637.66;;;13.45;54.51
64889;BME280;51386;53.082;8.816;2023-04-09T06:10:43;102626.50;;;13.51;54.24
64889;BME280;51386;53.082;8.816;2023-04-09T06:13:10;102632.47;;;13.53;54.14
64889;BME280;51386;53.082;8.816;2023-04-09T06:15:37;102635.81;;;13.55;54.06
64889;BME280;51386;53.082;8.816;2023-04-09T06:18:06;102634.84;;;13.56;53.87
64889;BME280;51386;53.082;8.816;2023-04-09T06:20:33;102637.50;;;13.56;54.06
64889;BME280;51386;53.082;8.816;2023-04-09T06:23:00;102638.16;;;13.58;53.94
64889;BME280;51386;53.082;8.816;2023-04-09T06:25:27;102634.25;;;13.63;53.81
64889;BME280;51386;53.082;8.816;2023-04-09T06:27:54;102637.97;;;13.70;53.69
64889;BME280;51386;53.082;8.816;2023-04-09T06:30:21;102644.63;;;13.74;53.63
64889;BME280;51386;53.082;8.816;2023-04-09T06:32:49;102646.56;;;13.72;53.18
64889;BME280;51386;53.082;8.816;2023-04-09T06:35:22;102646.22;;;13.67;53.32
64889;BME280;51386;53.082;8.816;2023-04-09T06:37:49;102642.28;;;13.71;53.29
64889;BME280;51386;53.082;8.816;2023-04-09T06:40:16;102646.97;;;13.77;53.27
64889;BME280;51386;53.082;8.816;2023-04-09T06:42:44;102651.69;;;13.83;52.97
64889;BME280;51386;53.082;8.816;2023-04-09T06:45:11;102649.09;;;13.91;52.80
64889;BME280;51386;53.082;8.816;2023-04-09T06:47:38;102650.19;;;13.98;52.34
64889;BME280;51386;53.082;8.816;2023-04-09T06:50:07;102652.91;;;14.06;52.05
64889;BME280;51386;53.082;8.816;2023-04-09T06:52:35;102651.84;;;13.99;51.31
64889;BME280;51386;53.082;8.816;2023-04-09T06:55:02;102647.47;;;13.90;51.17
64889;BME280;51386;53.082;8.816;2023-04-09T06:57:29;102646.97;;;13.77;51.23
64889;BME280;51386;53.082;8.816;2023-04-09T06:59:56;102651.00;;;13.81;51.51
64889;BME280;51386;53.082;8.816;2023-04-09T07:02:23;102655.00;;;13.85;51.58
64889;BME280;51386;53.082;8.816;2023-04-09T07:04:51;102650.56;;;13.85;51.45
64889;BME280;51386;53.082;8.816;2023-04-09T07:07:17;102655.41;;;13.90;51.32
64889;BME280;51386;53.082;8.816;2023-04-09T07:09:47;102657.66;;;13.85;50.91
64889;BME280;51386;53.082;8.816;2023-04-09T07:12:25;102662.28;;;13.83;50.97
64889;BME280;51386;53.082;8.816;2023-04-09T07:14:52;102662.34;;;13.91;51.09
64889;BME280;51386;53.082;8.816;2023-04-09T07:17:19;102661.34;;;14.19;50.50
64889;BME280;51386;53.082;8.816;2023-04-09T07:19:46;102665.28;;;14.50;49.36
64889;BME280;51386;53.082;8.816;2023-04-09T07:22:13;102668.88;;;14.84;48.62
64889;BME280;51386;53.082;8.816;2023-04-09T07:24:40;102660.78;;;15.12;47.87
64889;BME280;51386;53.082;8.816;2023-04-09T07:27:08;102672.47;;;15.52;47.94
64889;BME280;51386;53.082;8.816;2023-04-09T07:29:36;102661.53;;;15.97;47.07
64889;BME280;51386;53.082;8.816;2023-04-09T07:32:03;102668.59;;;16.55;45.86
64889;BME280;51386;53.082;8.816;2023-04-09T07:34:30;102665.53;;;17.22;44.78
64889;BME280;51386;53.082;8.816;2023-04-09T07:36:57;102668.50;;;17.82;42.62
64889;BME280;51386;53.082;8.816;2023-04-09T07:39:24;102668.75;;;18.41;40.92
64889;BME280;51386;53.082;8.816;2023-04-09T07:41:51;102660.97;;;18.99;40.33
64889;BME280;51386;53.082;8.816;2023-04-09T07:44:19;102657.94;;;19.46;38.77
64889;BME280;51386;53.082;8.816;2023-04-09T07:46:46;102663.16;;;20.04;38.33
64889;BME280;51386;53.082;8.816;2023-04-09T07:49:13;102667.53;;;20.48;36.65
64889;BME280;51386;53.082;8.816;2023-04-09T07:51:40;102661.44;;;20.54;36.06
64889;BME280;51386;53.082;8.816;2023-04-09T07:54:07;102673.25;;;20.87;36.07
64889;BME280;51386;53.082;8.816;2023-04-09T07:56:34;102665.34;;;21.34;34.68
64889;BME280;51386;53.082;8.816;2023-04-09T07:59:01;102662.25;;;21.85;35.03
64889;BME280;51386;53.082;8.816;2023-04-09T08:01:30;102658.47;;;22.59;34.90
64889;BME280;51386;53.082;8.816;2023-04-09T08:03:57;102664.03;;;23.17;32.86
64889;BME280;51386;53.082;8.816;2023-04-09T08:06:24;102664.06;;;23.74;32.20
64889;BME280;51386;53.082;8.816;2023-04-09T08:08:52;102664.28;;;24.42;31.06
64889;BME280;51386;53.082;8.816;2023-04-09T08:11:19;102658.13;;;24.59;29.04
64889;BME280;51386;53.082;8.816;2023-04-09T08:13:50;102663.28;;;24.61;29.32
64889;BME280;51386;53.082;8.816;2023-04-09T08:16:18;102663.84;;;24.94;29.21
64889;BME280;51386;53.082;8.816;2023-04-09T08:18:46;102653.91;;;25.31;29.19
64889;BME280;51386;53.082;8.816;2023-04-09T08:21:13;102655.94;;;25.72;28.19
64889;BME280;51386;53.082;8.816;2023-04-09T08:23:40;102647.47;;;25.98;28.05
64889;BME280;51386;53.082;8.816;2023-04-09T08:26:07;102653.94;;;26.27;27.99
64889;BME280;51386;53.082;8.816;2023-04-09T08:28:34;102662.56;;;26.81;26.59
64889;BME280;51386;53.082;8.816;2023-04-09T08:31:01;102655.28;;;26.94;25.81
64889;BME280;51386;53.082;8.816;2023-04-09T08:33:28;102657.38;;;27.38;26.38
64889;BME280;51386;53.082;8.816;2023-04-09T08:35:57;102662.72;;;27.61;25.15
64889;BME280;51386;53.082;8.816;2023-04-09T08:38:24;102662.25;;;27.64;25.19
64889;BME280;51386;53.082;8.816;2023-04-09T08:40:51;102659.63;;;27.69;24.73
64889;BME280;51386;53.082;8.816;2023-04-09T08:43:21;102658.44;;;27.65;24.66
64889;BME280;51386;53.082;8.816;2023-04-09T08:45:50;102648.81;;;27.69;24.09
64889;BME280;51386;53.082;8.816;2023-04-09T08:48:20;102651.72;;;27.96;24.55
64889;BME280;51386;53.082;8.816;2023-04-09T08:50:47;102660.09;;;28.23;24.05
64889;BME280;51386;53.082;8.816;2023-04-09T08:53:17;102658.06;;;28.46;24.24
64889;BME280;51386;53.082;8.816;2023-04-09T08:55:45;102666.00;;;28.86;23.45
64889;BME280;51386;53.082;8.816;2023-04-09T08:58:12;102658.53;;;29.15;23.04
64889;BME280;51386;53.082;8.816;2023-04-09T09:00:39;102655.75;;;29.48;23.15
64889;BME280;51386;53.082;8.816;2023-04-09T09:03:08;102658.66;;;29.03;22.84
64889;BME280;51386;53.082;8.816;2023-04-09T09:05:38;102653.09;;;27.82;24.09
64889;BME280;51386;53.082;8.816;2023-04-09T09:08:07;102656.00;;;26.89;24.81
64889;BME280;51386;53.082;8.816;2023-04-09T09:10:43;102647.31;;;26.75;25.62
64889;BME280;51386;53.082;8.816;2023-04-09T09:13:17;102660.06;;;27.15;24.60
64889;BME280;51386;53.082;8.816;2023-04-09T09:15:44;102650.09;;;26.57;25.73
64889;BME280;51386;53.082;8.816;2023-04-09T09:18:13;102639.75;;;26.54;25.62
64889;BME280;51386;53.082;8.816;2023-04-09T09:20:40;102647.50;;;27.20;25.44
64889;BME280;51386;53.082;8.816;2023-04-09T09:23:07;102643.84;;;27.26;24.67
64889;BME280;51386;53.082;8.816;2023-04-09T09:25:37;102643.41;;;27.58;25.40
64889;BME280;51386;53.082;8.816;2023-04-09T09:28:11;102637.94;;;28.09;24.38
64889;BME280;51386;53.082;8.816;2023-04-09T09:30:38;102643.94;;;28.61;23.25
64889;BME280;51386;53.082;8.816;2023-04-09T09:33:08;102639.25;;;28.73;23.57
64889;BME280;51386;53.082;8.816;2023-04-09T09:35:51;102641.59;;;29.24;23.47
64889;BME280;51386;53.082;8.816;2023-04-09T09:38:19;102646.69;;;29.37;23.20
64889;BME280;51386;53.082;8.816;2023-04-09T09:40:46;102643.19;;;28.82;22.59
64889;BME280;51386;53.082;8.816;2023-04-09T09:43:15;102636.94;;;28.15;23.92
64889;BME280;51386;53.082;8.816;2023-04-09T09:45:45;102632.19;;;28.72;23.67
64889;BME280;51386;53.082;8.816;2023-04-09T09:48:13;102633.09;;;29.37;22.47
64889;BME280;51386;53.082;8.816;2023-04-09T09:50:43;102636.22;;;29.73;22.18
64889;BME280;51386;53.082;8.816;2023-04-09T09:53:13;102635.75;;;30.34;21.64
64889;BME280;51386;53.082;8.816;2023-04-09T09:55:48;102630.78;;;31.05;20.90
64889;BME280;51386;53.082;8.816;2023-04-09T09:58:27;102622.50;;;31.41;20.67
64889;BME280;51386;53.082;8.816;2023-04-09T10:00:56;102625.06;;;31.93;19.94
64889;BME280;51386;53.082;8.816;2023-04-09T10:03:26;102631.88;;;31.76;19.63
64889;BME280;51386;53.082;8.816;2023-04-09T10:05:57;102619.84;;;31.72;20.06
64889;BME280;51386;53.082;8.816;2023-04-09T10:08:29;102620.22;;;32.16;19.97
64889;BME280;51386;53.082;8.816;2023-04-09T10:10:56;102625.63;;;32.46;19.18
64889;BME280;51386;53.082;8.816;2023-04-09T10:13:31;102614.19;;;32.39;19.64
64889;BME280;51386;53.082;8.816;2023-04-09T10:16:00;102618.28;;;32.61;19.26
64889;BME280;51386;53.082;8.816;2023-04-09T10:18:28;102606.22;;;32.78;19.25
64889;BME280;51386;53.082;8.816;2023-04-09T10:20:58;102617.91;;;33.03;18.91
64889;BME280;51386;53.082;8.816;2023-04-09T10:23:35;102607.09;;;32.63;19.18
64889;BME280;51386;53.082;8.816;2023-04-09T10:26:04;102609.22;;;31.60;19.76
64889;BME280;51386;53.082;8.816;2023-04-09T10:28:36;102606.00;;;30.54;21.09
64889;BME280;51386;53.082;8.816;2023-04-09T10:31:06;102596.50;;;30.57;21.10
64889;BME280;51386;53.082;8.816;2023-04-09T10:33:36;102597.19;;;30.84;21.20
64889;BME280;51386;53.082;8.816;2023-04-09T10:36:09;102598.44;;;29.98;20.97
64889;BME280;51386;53.082;8.816;2023-04-09T10:38:37;102602.22;;;29.00;22.15
64889;BME280;51386;53.082;8.816;2023-04-09T10:41:13;102602.56;;;28.87;22.89
64889;BME280;51386;53.082;8.816;2023-04-09T10:43:42;102597.28;;;28.97;22.41
64889;BME280;51386;53.082;8.816;2023-04-09T10:46:27;102596.38;;;28.70;22.89
64889;BME280;51386;53.082;8.816;2023-04-09T10:49:09;102592.63;;;28.38;23.08
64889;BME280;51386;53.082;8.816;2023-04-09T10:51:37;102585.66;;;28.80;23.01
64889;BME280;51386;53.082;8.816;2023-04-09T10:54:42;102592.53;;;29.52;22.24
64889;BME280;51386;53.082;8.816;2023-04-09T10:57:17;102587.47;;;30.20;21.98
64889;BME280;51386;53.082;8.816;2023-04-09T10:59:47;102589.25;;;30.77;20.98
64889;BME280;51386;53.082;8.816;2023-04-09T11:03:14;102582.66;;;31.15;21.06
64889;BME280;51386;53.082;8.816;2023-04-09T11:05:47;102581.75;;;30.95;20.86
64889;BME280;51386;53.082;8.816;2023-04-09T11:08:18;102573.59;;;30.53;20.91
64889;BME280;51386;53.082;8.816;2023-04-09T11:10:50;102568.69;;;30.13;21.12
64889;BME280;51386;53.082;8.816;2023-04-09T11:13:19;102579.44;;;29.98;21.06
64889;BME280;51386;53.082;8.816;2023-04-09T11:15:47;102573.19;;;29.97;21.35
64889;BME280;51386;53.082;8.816;2023-04-09T11:18:19;102569.69;;;30.02;21.44
64889;BME280;51386;53.082;8.816;2023-04-09T11:20:46;102573.22;;;30.34;20.74
64889;BME280;51386;53.082;8.816;2023-04-09T11:23:16;102563.81;;;30.99;19.99
64889;BME280;51386;53.082;8.816;2023-04-09T11:25:50;102562.91;;;31.60;19.24
64889;BME280;51386;53.082;8.816;2023-04-09T11:28:18;102564.59;;;32.06;19.23
64889;BME280;51386;53.082;8.816;2023-04-09T11:30:46;102566.22;;;31.92;18.56
64889;BME280;51386;53.082;8.816;2023-04-09T11:33:13;102561.84;;;31.61;19.13
64889;BME280;51386;53.082;8.816;2023-04-09T11:35:42;102565.63;;;31.45;19.16
64889;BME280;51386;53.082;8.816;2023-04-09T11:38:11;102560.13;;;31.35;19.18
64889;BME280;51386;53.082;8.816;2023-04-09T11:40:44;102557.91;;;31.27;20.11
64889;BME280;51386;53.082;8.816;2023-04-09T11:43:16;102563.59;;;31.10;18.83
64889;BME280;51386;53.082;8.816;2023-04-09T11:45:44;102557.53;;;30.46;19.54
64889;BME280;51386;53.082;8.816;2023-04-09T11:48:15;102551.16;;;30.31;20.12
64889;BME280;51386;53.082;8.816;2023-04-09T11:50:45;102555.44;;;30.58;19.62
64889;BME280;51386;53.082;8.816;2023-04-09T11:53:17;102548.44;;;30.72;18.76
64889;BME280;51386;53.082;8.816;2023-04-09T11:55:48;102554.28;;;30.49;19.42
64889;BME280;51386;53.082;8.816;2023-04-09T11:58:21;102546.50;;;30.26;19.26
64889;BME280;51386;53.082;8.816;2023-04-09T12:00:52;102551.75;;;30.85;18.95
64889;BME280;51386;53.082;8.816;2023-04-09T12:03:27;102543.78;;;31.35;19.00
64889;BME280;51386;53.082;8.816;2023-04-09T12:05:58;102546.00;;;31.43;19.00
64889;BME280;51386;53.082;8.816;2023-04-09T12:08:26;102545.22;;;31.63;19.04
64889;BME280;51386;53.082;8.816;2023-04-09T12:10:53;102544.94;;;31.84;18.17
64889;BME280;51386;53.082;8.816;2023-04-09T12:13:31;102539.53;;;32.04;18.02
64889;BME280;51386;53.082;8.816;2023-04-09T12:16:00;102548.78;;;31.98;18.64
64889;BME280;51386;53.082;8.816;2023-04-09T12:18:28;102540.59;;;31.83;18.40
64889;BME280;51386;53.082;8.816;2023-04-09T12:20:56;102538.41;;;31.45;18.82
64889;BME280;51386;53.082;8.816;2023-04-09T12:23:23;102537.56;;;30.77;18.59
64889;BME280;51386;53.082;8.816;2023-04-09T12:25:50;102531.16;;;30.10;19.21
64889;BME280;51386;53.082;8.816;2023-04-09T12:28:17;102537.50;;;29.57;20.05
64889;BME280;51386;53.082;8.816;2023-04-09T12:30:46;102531.78;;;29.10;20.51
64889;BME280;51386;53.082;8.816;2023-04-09T12:33:14;102528.72;;;28.42;20.88
64889;BME280;51386;53.082;8.816;2023-04-09T12:35:41;102524.78;;;28.33;21.00
64889;BME280;51386;53.082;8.816;2023-04-09T12:38:09;102526.38;;;28.50;20.98
64889;BME280;51386;53.082;8.816;2023-04-09T12:40:36;102522.59;;;28.68;20.46
64889;BME280;51386;53.082;8.816;2023-04-09T12:43:04;102523.63;;;28.83;20.63
64889;BME280;51386;53.082;8.816;2023-04-09T12:45:31;102525.59;;;29.36;20.16
64889;BME280;51386;53.082;8.816;2023-04-09T12:48:00;102520.16;;;29.90;19.70
64889;BME280;51386;53.082;8.816;2023-04-09T12:50:27;102525.00;;;30.61;18.34
64889;BME280;51386;53.082;8.816;2023-04-09T12:52:54;102522.28;;;30.61;18.18
64889;BME280;51386;53.082;8.816;2023-04-09T12:55:21;102522.88;;;30.32;18.52
64889;BME280;51386;53.082;8.816;2023-04-09T12:57:49;102520.47;;;29.67;18.77
64889;BME280;51386;53.082;8.816;2023-04-09T13:00:17;102520.16;;;29.36;19.31